<?xml version='1.0' encoding='UTF-8'?>
<gpx xmlns="http://www.topografix.com/GPX/1/1" creator="www.balnam.be" version="1.1" xmlns:xsi="http://www.w3.org/2001/XMLSchema-instance" xsi:schemaLocation="http://www.topografix.com/GPX/1/1 http://www.topografix.com/GPX/1/1/gpx.xsd">
<trk>
<name>nrcjm1</name>
<cmt>r</cmt>
<desc>Jemelle Chemin n°1 </desc>
<link href="https://chemins.be/jemelle/chemin/1"/><trkseg>
<trkpt lat="50.162285" lon="5.260170"><time>2026-05-04T20:22:39Z</time></trkpt>
<trkpt lat="50.162651" lon="5.257014"><time>2026-05-04T20:32:39Z</time></trkpt>
<trkpt lat="50.162894" lon="5.254653"><time>2026-05-04T20:42:39Z</time></trkpt>
<trkpt lat="50.162486" lon="5.253873"><time>2026-05-04T20:52:39Z</time></trkpt>
<trkpt lat="50.162156" lon="5.253666"><time>2026-05-04T21:02:39Z</time></trkpt>
<trkpt lat="50.161244" lon="5.250970"><time>2026-05-04T21:12:39Z</time></trkpt>
<trkpt lat="50.158874" lon="5.245299"><time>2026-05-04T21:22:39Z</time></trkpt>
<trkpt lat="50.159329" lon="5.244566"><time>2026-05-04T21:32:39Z</time></trkpt>
<trkpt lat="50.158291" lon="5.241636"><time>2026-05-04T21:42:39Z</time></trkpt>
<trkpt lat="50.157728" lon="5.238728"><time>2026-05-04T21:52:39Z</time></trkpt>
<trkpt lat="50.157743" lon="5.235594"><time>2026-05-04T22:02:39Z</time></trkpt>
<trkpt lat="50.157814" lon="5.230907"><time>2026-05-04T22:12:39Z</time></trkpt>
</trkseg>
</trk>
<trk>
<name>nrcjm10</name>
<cmt>r</cmt>
<desc>Jemelle Chemin n°10 Rue du Congo / Route de Forrières</desc>
<link href="https://chemins.be/jemelle/chemin/10"/><trkseg>
<trkpt lat="50.145428" lon="5.250593"><time>2026-05-04T20:22:39Z</time></trkpt>
<trkpt lat="50.145512" lon="5.253756"><time>2026-05-04T20:32:39Z</time></trkpt>
<trkpt lat="50.145370" lon="5.256958"><time>2026-05-04T20:42:39Z</time></trkpt>
<trkpt lat="50.145574" lon="5.258473"><time>2026-05-04T20:52:39Z</time></trkpt>
<trkpt lat="50.145422" lon="5.259589"><time>2026-05-04T21:02:39Z</time></trkpt>
<trkpt lat="50.144627" lon="5.261267"><time>2026-05-04T21:12:39Z</time></trkpt>
<trkpt lat="50.144711" lon="5.263186"><time>2026-05-04T21:22:39Z</time></trkpt>
<trkpt lat="50.145695" lon="5.266129"><time>2026-05-04T21:32:39Z</time></trkpt>
<trkpt lat="50.146356" lon="5.268981"><time>2026-05-04T21:42:39Z</time></trkpt>
<trkpt lat="50.146053" lon="5.269843"><time>2026-05-04T21:52:39Z</time></trkpt>
<trkpt lat="50.145473" lon="5.270434"><time>2026-05-04T22:02:39Z</time></trkpt>
</trkseg></trk>
<trk>
<name>nrcjm10</name>
<cmt>v</cmt>
<desc>Jemelle Chemin n°10 Rue du Congo / Route de Forrières</desc>
<link href="https://chemins.be/jemelle/chemin/10"/><trkseg>
<trkpt lat="50.145473" lon="5.270434"><time>2026-05-04T22:02:39Z</time></trkpt>
<trkpt lat="50.146082" lon="5.270655"><time>2026-05-04T22:12:39Z</time></trkpt>
</trkseg></trk>
<trk>
<name>nrcjm10</name>
<cmt>s</cmt>
<desc>Jemelle Chemin n°10 Rue du Congo / Route de Forrières</desc>
<link href="https://chemins.be/jemelle/chemin/10"/><trkseg>
<trkpt lat="50.146082" lon="5.270655"><time>2026-05-04T22:12:39Z</time></trkpt>
<trkpt lat="50.146401" lon="5.271263"><time>2026-05-04T22:22:39Z</time></trkpt>
<trkpt lat="50.146791" lon="5.271998"><time>2026-05-04T22:32:39Z</time></trkpt>
<trkpt lat="50.147309" lon="5.272469"><time>2026-05-04T22:42:39Z</time></trkpt>
<trkpt lat="50.147408" lon="5.273591"><time>2026-05-04T22:52:39Z</time></trkpt>
</trkseg></trk>
<trk>
<name>nrcjm10</name>
<cmt>r</cmt>
<desc>Jemelle Chemin n°10 Rue du Congo / Route de Forrières</desc>
<link href="https://chemins.be/jemelle/chemin/10"/><trkseg>
<trkpt lat="50.147408" lon="5.273591"><time>2026-05-04T22:52:39Z</time></trkpt>
<trkpt lat="50.147350" lon="5.274051"><time>2026-05-04T23:02:39Z</time></trkpt>
<trkpt lat="50.146766" lon="5.275244"><time>2026-05-04T23:12:39Z</time></trkpt>
<trkpt lat="50.146086" lon="5.275930"><time>2026-05-04T23:22:39Z</time></trkpt>
</trkseg>
</trk>
<trk>
<name>nrcjm11</name>
<cmt>v</cmt>
<desc>Jemelle Chemin n°11 Sur Baulet / Rue du Maurlet</desc>
<link href="https://chemins.be/jemelle/chemin/11"/><trkseg>
<trkpt lat="50.153731" lon="5.283015"><time>2026-05-04T20:22:39Z</time></trkpt>
<trkpt lat="50.154381" lon="5.282846"><time>2026-05-04T20:32:39Z</time></trkpt>
<trkpt lat="50.154697" lon="5.282703"><time>2026-05-04T20:42:39Z</time></trkpt>
<trkpt lat="50.155815" lon="5.281453"><time>2026-05-04T20:52:39Z</time></trkpt>
<trkpt lat="50.156359" lon="5.278964"><time>2026-05-04T21:02:39Z</time></trkpt>
<trkpt lat="50.156178" lon="5.276140"><time>2026-05-04T21:12:39Z</time></trkpt>
<trkpt lat="50.156062" lon="5.274217"><time>2026-05-04T21:22:39Z</time></trkpt>
<trkpt lat="50.156244" lon="5.272578"><time>2026-05-04T21:32:39Z</time></trkpt>
<trkpt lat="50.156827" lon="5.271634"><time>2026-05-04T21:42:39Z</time></trkpt>
<trkpt lat="50.157342" lon="5.271442"><time>2026-05-04T21:52:39Z</time></trkpt>
<trkpt lat="50.158047" lon="5.271668"><time>2026-05-04T22:02:39Z</time></trkpt>
<trkpt lat="50.158778" lon="5.270588"><time>2026-05-04T22:12:39Z</time></trkpt>
<trkpt lat="50.159271" lon="5.268525"><time>2026-05-04T22:22:39Z</time></trkpt>
<trkpt lat="50.159127" lon="5.267403"><time>2026-05-04T22:32:39Z</time></trkpt>
</trkseg></trk>
<trk>
<name>nrcjm11</name>
<cmt>s</cmt>
<desc>Jemelle Chemin n°11 Sur Baulet / Rue du Maurlet</desc>
<link href="https://chemins.be/jemelle/chemin/11"/><trkseg>
<trkpt lat="50.159127" lon="5.267403"><time>2026-05-04T22:32:39Z</time></trkpt>
<trkpt lat="50.159772" lon="5.266603"><time>2026-05-04T22:42:39Z</time></trkpt>
<trkpt lat="50.161032" lon="5.265200"><time>2026-05-04T22:52:39Z</time></trkpt>
<trkpt lat="50.161095" lon="5.262891"><time>2026-05-04T23:02:39Z</time></trkpt>
<trkpt lat="50.161666" lon="5.261167"><time>2026-05-04T23:12:39Z</time></trkpt>
</trkseg>
</trk>
<trk>
<name>nrcjm12</name>
<cmt>v</cmt>
<desc>Jemelle Chemin n°12 </desc>
<link href="https://chemins.be/jemelle/chemin/12"/><trkseg>
<trkpt lat="50.158784" lon="5.270637"><time>2026-05-04T20:22:39Z</time></trkpt>
<trkpt lat="50.158714" lon="5.274253"><time>2026-05-04T20:32:39Z</time></trkpt>
<trkpt lat="50.159271" lon="5.278896"><time>2026-05-04T20:42:39Z</time></trkpt>
<trkpt lat="50.159125" lon="5.280083"><time>2026-05-04T20:52:39Z</time></trkpt>
</trkseg>
</trk>
<trk>
<name>nrcjm13</name>
<cmt>s</cmt>
<desc>Jemelle Chemin n°13 </desc>
<link href="https://chemins.be/jemelle/chemin/13"/><trkseg>
<trkpt lat="50.159385" lon="5.266582"><time>2026-05-04T20:22:39Z</time></trkpt>
<trkpt lat="50.158946" lon="5.266336"><time>2026-05-04T20:32:39Z</time></trkpt>
<trkpt lat="50.157591" lon="5.266017"><time>2026-05-04T20:42:39Z</time></trkpt>
<trkpt lat="50.156881" lon="5.266031"><time>2026-05-04T20:52:39Z</time></trkpt>
</trkseg>
</trk>
<trk>
<name>nrcjm14</name>
<cmt>v</cmt>
<desc>Jemelle Chemin n°14 </desc>
<link href="https://chemins.be/jemelle/chemin/14"/><trkseg>
<trkpt lat="50.168057" lon="5.259075"><time>2026-05-04T20:22:39Z</time></trkpt>
<trkpt lat="50.169212" lon="5.257290"><time>2026-05-04T20:32:39Z</time></trkpt>
<trkpt lat="50.170080" lon="5.256747"><time>2026-05-04T20:42:39Z</time></trkpt>
<trkpt lat="50.171577" lon="5.255010"><time>2026-05-04T20:52:39Z</time></trkpt>
</trkseg>
</trk>
<trk>
<name>nrcjm15</name>
<cmt>q</cmt>
<desc>Jemelle Chemin n°15 </desc>
<link href="https://chemins.be/jemelle/chemin/15"/><trkseg>
<trkpt lat="50.167113" lon="5.265623"><time>2026-05-04T20:22:39Z</time></trkpt>
<trkpt lat="50.168394" lon="5.266120"><time>2026-05-04T20:32:39Z</time></trkpt>
</trkseg>
</trk>
<trk>
<name>nrcjm16</name>
<cmt>v</cmt>
<desc>Jemelle Chemin n°16 </desc>
<link href="https://chemins.be/jemelle/chemin/16"/><trkseg>
<trkpt lat="50.166670" lon="5.241747"><time>2026-05-04T20:22:39Z</time></trkpt>
<trkpt lat="50.167504" lon="5.243120"><time>2026-05-04T20:32:39Z</time></trkpt>
</trkseg>
</trk>
<trk>
<name>nrcjm17</name>
<cmt>r</cmt>
<desc>Jemelle Chemin n°17 Avenue de Ninove / Malagne</desc>
<link href="https://chemins.be/jemelle/chemin/17"/><trkseg>
<trkpt lat="50.159788" lon="5.244588"><time>2026-05-04T20:22:39Z</time></trkpt>
<trkpt lat="50.160113" lon="5.244356"><time>2026-05-04T20:32:39Z</time></trkpt>
<trkpt lat="50.160891" lon="5.245355"><time>2026-05-04T20:42:39Z</time></trkpt>
<trkpt lat="50.161684" lon="5.245455"><time>2026-05-04T20:52:39Z</time></trkpt>
<trkpt lat="50.162316" lon="5.245426"><time>2026-05-04T21:02:39Z</time></trkpt>
<trkpt lat="50.162371" lon="5.245011"><time>2026-05-04T21:12:39Z</time></trkpt>
<trkpt lat="50.163115" lon="5.244579"><time>2026-05-04T21:22:39Z</time></trkpt>
<trkpt lat="50.163635" lon="5.243511"><time>2026-05-04T21:32:39Z</time></trkpt>
</trkseg>
</trk>
<trk>
<name>nrcjm18</name>
<cmt>r</cmt>
<desc>Jemelle Chemin n°18 Rue de Longchamps</desc>
<link href="https://chemins.be/jemelle/chemin/18"/><trkseg>
<trkpt lat="50.157857" lon="5.238381"><time>2026-05-04T20:22:39Z</time></trkpt>
<trkpt lat="50.158152" lon="5.237174"><time>2026-05-04T20:32:39Z</time></trkpt>
<trkpt lat="50.158591" lon="5.234865"><time>2026-05-04T20:42:39Z</time></trkpt>
<trkpt lat="50.158888" lon="5.234221"><time>2026-05-04T20:52:39Z</time></trkpt>
</trkseg>
</trk>
<trk>
<name>nrcjm19</name>
<cmt>v</cmt>
<desc>Jemelle Chemin n°19 </desc>
<link href="https://chemins.be/jemelle/chemin/19"/><trkseg>
<trkpt lat="50.136411" lon="5.240997"><time>2026-05-04T20:22:39Z</time></trkpt>
<trkpt lat="50.136018" lon="5.241760"><time>2026-05-04T20:32:39Z</time></trkpt>
<trkpt lat="50.135282" lon="5.244082"><time>2026-05-04T20:42:39Z</time></trkpt>
<trkpt lat="50.135054" lon="5.244484"><time>2026-05-04T20:52:39Z</time></trkpt>
</trkseg>
</trk>
<trk>
<name>nrcjm2</name>
<cmt>r</cmt>
<desc>Jemelle Chemin n°2 Rue du Fays</desc>
<link href="https://chemins.be/jemelle/chemin/2"/><trkseg>
<trkpt lat="50.160952" lon="5.260481"><time>2026-05-04T20:22:39Z</time></trkpt>
<trkpt lat="50.160531" lon="5.260292"><time>2026-05-04T20:32:39Z</time></trkpt>
<trkpt lat="50.160326" lon="5.260008"><time>2026-05-04T20:42:39Z</time></trkpt>
<trkpt lat="50.159793" lon="5.259703"><time>2026-05-04T20:52:39Z</time></trkpt>
<trkpt lat="50.159817" lon="5.259620"><time>2026-05-04T21:02:39Z</time></trkpt>
<trkpt lat="50.158102" lon="5.259288"><time>2026-05-04T21:12:39Z</time></trkpt>
<trkpt lat="50.156826" lon="5.257969"><time>2026-05-04T21:22:39Z</time></trkpt>
<trkpt lat="50.156072" lon="5.256709"><time>2026-05-04T21:32:39Z</time></trkpt>
<trkpt lat="50.155711" lon="5.256857"><time>2026-05-04T21:42:39Z</time></trkpt>
<trkpt lat="50.155643" lon="5.256324"><time>2026-05-04T21:52:39Z</time></trkpt>
<trkpt lat="50.155118" lon="5.255572"><time>2026-05-04T22:02:39Z</time></trkpt>
<trkpt lat="50.151727" lon="5.253438"><time>2026-05-04T22:12:39Z</time></trkpt>
<trkpt lat="50.149681" lon="5.251735"><time>2026-05-04T22:22:39Z</time></trkpt>
<trkpt lat="50.148097" lon="5.250810"><time>2026-05-04T22:32:39Z</time></trkpt>
<trkpt lat="50.146100" lon="5.250913"><time>2026-05-04T22:42:39Z</time></trkpt>
<trkpt lat="50.145465" lon="5.250454"><time>2026-05-04T22:52:39Z</time></trkpt>
<trkpt lat="50.144775" lon="5.248972"><time>2026-05-04T23:02:39Z</time></trkpt>
<trkpt lat="50.140910" lon="5.246522"><time>2026-05-04T23:12:39Z</time></trkpt>
<trkpt lat="50.139965" lon="5.244266"><time>2026-05-04T23:22:39Z</time></trkpt>
<trkpt lat="50.136171" lon="5.241818"><time>2026-05-04T23:32:39Z</time></trkpt>
</trkseg>
</trk>
<trk>
<name>nrcjm20</name>
<cmt>v</cmt>
<desc>Jemelle Chemin n°20 </desc>
<link href="https://chemins.be/jemelle/chemin/20"/><trkseg>
<trkpt lat="50.145266" lon="5.270360"><time>2026-05-04T20:22:39Z</time></trkpt>
<trkpt lat="50.144754" lon="5.270280"><time>2026-05-04T20:32:39Z</time></trkpt>
<trkpt lat="50.144320" lon="5.270636"><time>2026-05-04T20:42:39Z</time></trkpt>
<trkpt lat="50.143785" lon="5.271185"><time>2026-05-04T20:52:39Z</time></trkpt>
<trkpt lat="50.143233" lon="5.271693"><time>2026-05-04T21:02:39Z</time></trkpt>
<trkpt lat="50.143266" lon="5.272029"><time>2026-05-04T21:12:39Z</time></trkpt>
<trkpt lat="50.143381" lon="5.272325"><time>2026-05-04T21:22:39Z</time></trkpt>
<trkpt lat="50.143288" lon="5.272645"><time>2026-05-04T21:32:39Z</time></trkpt>
</trkseg>
</trk>
<trk>
<name>nrcjm21</name>
<cmt>v</cmt>
<desc>Jemelle Chemin n°21 </desc>
<link href="https://chemins.be/jemelle/chemin/21"/><trkseg>
<trkpt lat="50.149554" lon="5.251845"><time>2026-05-04T20:22:39Z</time></trkpt>
<trkpt lat="50.148270" lon="5.251625"><time>2026-05-04T20:32:39Z</time></trkpt>
<trkpt lat="50.147802" lon="5.251770"><time>2026-05-04T20:42:39Z</time></trkpt>
</trkseg></trk>
<trk>
<name>nrcjm21</name>
<cmt>s</cmt>
<desc>Jemelle Chemin n°21 </desc>
<link href="https://chemins.be/jemelle/chemin/21"/><trkseg>
<trkpt lat="50.147802" lon="5.251770"><time>2026-05-04T20:42:39Z</time></trkpt>
<trkpt lat="50.145362" lon="5.252959"><time>2026-05-04T20:52:39Z</time></trkpt>
</trkseg>
</trk>
<trk>
<name>nrcjm22</name>
<cmt>s</cmt>
<desc>Jemelle Chemin n°22 </desc>
<link href="https://chemins.be/jemelle/chemin/22"/><trkseg>
<trkpt lat="50.154331" lon="5.252703"><time>2026-05-04T20:22:39Z</time></trkpt>
<trkpt lat="50.154267" lon="5.251680"><time>2026-05-04T20:32:39Z</time></trkpt>
<trkpt lat="50.154073" lon="5.251215"><time>2026-05-04T20:42:39Z</time></trkpt>
<trkpt lat="50.153130" lon="5.251099"><time>2026-05-04T20:52:39Z</time></trkpt>
</trkseg>
</trk>
<trk>
<name>nrcjm23</name>
<cmt>r</cmt>
<desc>Jemelle Chemin n°23 Rue du Congo</desc>
<link href="https://chemins.be/jemelle/chemin/23"/><trkseg>
<trkpt lat="50.157972" lon="5.259782"><time>2026-05-04T20:22:39Z</time></trkpt>
<trkpt lat="50.156494" lon="5.260244"><time>2026-05-04T20:32:39Z</time></trkpt>
</trkseg></trk>
<trk>
<name>nrcjm23</name>
<cmt>s</cmt>
<desc>Jemelle Chemin n°23 Rue du Congo</desc>
<link href="https://chemins.be/jemelle/chemin/23"/><trkseg>
<trkpt lat="50.156494" lon="5.260244"><time>2026-05-04T20:32:39Z</time></trkpt>
<trkpt lat="50.155610" lon="5.260605"><time>2026-05-04T20:42:39Z</time></trkpt>
<trkpt lat="50.154617" lon="5.261105"><time>2026-05-04T20:52:39Z</time></trkpt>
</trkseg></trk>
<trk>
<name>nrcjm23</name>
<cmt>r</cmt>
<desc>Jemelle Chemin n°23 Rue du Congo</desc>
<link href="https://chemins.be/jemelle/chemin/23"/><trkseg>
<trkpt lat="50.154617" lon="5.261105"><time>2026-05-04T20:52:39Z</time></trkpt>
<trkpt lat="50.153851" lon="5.261314"><time>2026-05-04T21:02:39Z</time></trkpt>
<trkpt lat="50.151351" lon="5.261379"><time>2026-05-04T21:12:39Z</time></trkpt>
<trkpt lat="50.149331" lon="5.262209"><time>2026-05-04T21:22:39Z</time></trkpt>
<trkpt lat="50.148405" lon="5.262192"><time>2026-05-04T21:32:39Z</time></trkpt>
</trkseg></trk>
<trk>
<name>nrcjm23</name>
<cmt>v</cmt>
<desc>Jemelle Chemin n°23 Rue du Congo</desc>
<link href="https://chemins.be/jemelle/chemin/23"/><trkseg>
<trkpt lat="50.148405" lon="5.262192"><time>2026-05-04T21:32:39Z</time></trkpt>
<trkpt lat="50.148038" lon="5.261961"><time>2026-05-04T21:42:39Z</time></trkpt>
<trkpt lat="50.147601" lon="5.261477"><time>2026-05-04T21:52:39Z</time></trkpt>
<trkpt lat="50.147205" lon="5.260392"><time>2026-05-04T22:02:39Z</time></trkpt>
</trkseg>
</trk>
<trk>
<name>nrcjm24</name>
<cmt>r</cmt>
<desc>Jemelle Chemin n°24 Haie Madame / Rue du Congo</desc>
<link href="https://chemins.be/jemelle/chemin/24"/><trkseg>
<trkpt lat="50.157917" lon="5.260005"><time>2026-05-04T20:22:39Z</time></trkpt>
<trkpt lat="50.157139" lon="5.260620"><time>2026-05-04T20:32:39Z</time></trkpt>
<trkpt lat="50.155855" lon="5.261534"><time>2026-05-04T20:42:39Z</time></trkpt>
<trkpt lat="50.155169" lon="5.261899"><time>2026-05-04T20:52:39Z</time></trkpt>
</trkseg>
</trk>
<trk>
<name>nrcjm25</name>
<cmt>r</cmt>
<desc>Jemelle Sentier n°25 Impasse du Maurlet / ?</desc>
<link href="https://chemins.be/jemelle/sentier/25"/><trkseg>
<trkpt lat="50.161239" lon="5.265190"><time>2026-05-04T20:22:39Z</time></trkpt>
<trkpt lat="50.161557" lon="5.265895"><time>2026-05-04T20:32:39Z</time></trkpt>
</trkseg></trk>
<trk>
<name>nrcjm25</name>
<cmt>s</cmt>
<desc>Jemelle Sentier n°25 Impasse du Maurlet / ?</desc>
<link href="https://chemins.be/jemelle/sentier/25"/><trkseg>
<trkpt lat="50.161557" lon="5.265895"><time>2026-05-04T20:32:39Z</time></trkpt>
<trkpt lat="50.162056" lon="5.267612"><time>2026-05-04T20:42:39Z</time></trkpt>
<trkpt lat="50.162084" lon="5.268649"><time>2026-05-04T20:52:39Z</time></trkpt>
</trkseg>
</trk>
<trk>
<name>nrcjm26</name>
<cmt>v</cmt>
<desc>Jemelle Sentier n°26 </desc>
<link href="https://chemins.be/jemelle/sentier/26"/><trkseg>
<trkpt lat="50.161163" lon="5.262207"><time>2026-05-04T20:22:39Z</time></trkpt>
<trkpt lat="50.161047" lon="5.262135"><time>2026-05-04T20:32:39Z</time></trkpt>
<trkpt lat="50.160937" lon="5.262371"><time>2026-05-04T20:42:39Z</time></trkpt>
<trkpt lat="50.160756" lon="5.262605"><time>2026-05-04T20:52:39Z</time></trkpt>
</trkseg></trk>
<trk>
<name>nrcjm26</name>
<cmt>s</cmt>
<desc>Jemelle Sentier n°26 </desc>
<link href="https://chemins.be/jemelle/sentier/26"/><trkseg>
<trkpt lat="50.160756" lon="5.262605"><time>2026-05-04T20:52:39Z</time></trkpt>
<trkpt lat="50.159260" lon="5.266440"><time>2026-05-04T21:02:39Z</time></trkpt>
</trkseg>
</trk>
<trk>
<name>nrcjm27</name>
<cmt>q</cmt>
<desc>Jemelle Sentier n°27 </desc>
<link href="https://chemins.be/jemelle/sentier/27"/><trkseg>
<trkpt lat="50.160711" lon="5.262618"><time>2026-05-04T20:22:39Z</time></trkpt>
<trkpt lat="50.159786" lon="5.263595"><time>2026-05-04T20:32:39Z</time></trkpt>
<trkpt lat="50.159518" lon="5.263394"><time>2026-05-04T20:42:39Z</time></trkpt>
<trkpt lat="50.158756" lon="5.263099"><time>2026-05-04T20:52:39Z</time></trkpt>
</trkseg></trk>
<trk>
<name>nrcjm27</name>
<cmt>s</cmt>
<desc>Jemelle Sentier n°27 </desc>
<link href="https://chemins.be/jemelle/sentier/27"/><trkseg>
<trkpt lat="50.158756" lon="5.263099"><time>2026-05-04T20:52:39Z</time></trkpt>
<trkpt lat="50.157615" lon="5.262924"><time>2026-05-04T21:02:39Z</time></trkpt>
<trkpt lat="50.156884" lon="5.263260"><time>2026-05-04T21:12:39Z</time></trkpt>
<trkpt lat="50.155216" lon="5.263859"><time>2026-05-04T21:22:39Z</time></trkpt>
<trkpt lat="50.153605" lon="5.265312"><time>2026-05-04T21:32:39Z</time></trkpt>
<trkpt lat="50.151937" lon="5.267521"><time>2026-05-04T21:42:39Z</time></trkpt>
</trkseg></trk>
<trk>
<name>nrcjm27</name>
<cmt>v</cmt>
<desc>Jemelle Sentier n°27 </desc>
<link href="https://chemins.be/jemelle/sentier/27"/><trkseg>
<trkpt lat="50.151937" lon="5.267521"><time>2026-05-04T21:42:39Z</time></trkpt>
<trkpt lat="50.152120" lon="5.268443"><time>2026-05-04T21:52:39Z</time></trkpt>
<trkpt lat="50.153555" lon="5.269816"><time>2026-05-04T22:02:39Z</time></trkpt>
<trkpt lat="50.154018" lon="5.270353"><time>2026-05-04T22:12:39Z</time></trkpt>
<trkpt lat="50.154173" lon="5.271247"><time>2026-05-04T22:22:39Z</time></trkpt>
<trkpt lat="50.153747" lon="5.272978"><time>2026-05-04T22:32:39Z</time></trkpt>
<trkpt lat="50.152856" lon="5.275933"><time>2026-05-04T22:42:39Z</time></trkpt>
<trkpt lat="50.152764" lon="5.278548"><time>2026-05-04T22:52:39Z</time></trkpt>
<trkpt lat="50.153265" lon="5.279971"><time>2026-05-04T23:02:39Z</time></trkpt>
</trkseg>
</trk>
<trk>
<name>nrcjm28</name>
<cmt>s</cmt>
<desc>Jemelle Sentier n°28 </desc>
<link href="https://chemins.be/jemelle/sentier/28"/><trkseg>
<trkpt lat="50.159813" lon="5.263595"><time>2026-05-04T20:22:39Z</time></trkpt>
<trkpt lat="50.159776" lon="5.263706"><time>2026-05-04T20:32:39Z</time></trkpt>
<trkpt lat="50.158583" lon="5.264566"><time>2026-05-04T20:42:39Z</time></trkpt>
<trkpt lat="50.157996" lon="5.264779"><time>2026-05-04T20:52:39Z</time></trkpt>
<trkpt lat="50.158021" lon="5.265157"><time>2026-05-04T21:02:39Z</time></trkpt>
<trkpt lat="50.157538" lon="5.265918"><time>2026-05-04T21:12:39Z</time></trkpt>
</trkseg>
</trk>
<trk>
<name>nrcjm29</name>
<cmt>v</cmt>
<desc>Jemelle Sentier n°29 Avenue de Ninove</desc>
<link href="https://chemins.be/jemelle/sentier/29"/><trkseg>
<trkpt lat="50.163193" lon="5.260187"><time>2026-05-04T20:22:39Z</time></trkpt>
<trkpt lat="50.163192" lon="5.260327"><time>2026-05-04T20:32:39Z</time></trkpt>
<trkpt lat="50.163153" lon="5.260663"><time>2026-05-04T20:42:39Z</time></trkpt>
</trkseg></trk>
<trk>
<name>nrcjm29</name>
<cmt>s</cmt>
<desc>Jemelle Sentier n°29 Avenue de Ninove</desc>
<link href="https://chemins.be/jemelle/sentier/29"/><trkseg>
<trkpt lat="50.163153" lon="5.260663"><time>2026-05-04T20:42:39Z</time></trkpt>
<trkpt lat="50.163142" lon="5.260914"><time>2026-05-04T20:52:39Z</time></trkpt>
</trkseg>
</trk>
<trk>
<name>nrcjm3</name>
<cmt>r</cmt>
<desc>Jemelle Chemin n°3 Rue Malagne</desc>
<link href="https://chemins.be/jemelle/chemin/3"/><trkseg>
<trkpt lat="50.164013" lon="5.239879"><time>2026-05-04T20:22:39Z</time></trkpt>
<trkpt lat="50.163707" lon="5.243541"><time>2026-05-04T20:32:39Z</time></trkpt>
</trkseg></trk>
<trk>
<name>nrcjm3</name>
<cmt>v</cmt>
<desc>Jemelle Chemin n°3 Rue Malagne</desc>
<link href="https://chemins.be/jemelle/chemin/3"/><trkseg>
<trkpt lat="50.163707" lon="5.243541"><time>2026-05-04T20:32:39Z</time></trkpt>
<trkpt lat="50.163852" lon="5.244621"><time>2026-05-04T20:42:39Z</time></trkpt>
<trkpt lat="50.165325" lon="5.248273"><time>2026-05-04T20:52:39Z</time></trkpt>
<trkpt lat="50.166306" lon="5.251707"><time>2026-05-04T21:02:39Z</time></trkpt>
<trkpt lat="50.166659" lon="5.253827"><time>2026-05-04T21:12:39Z</time></trkpt>
<trkpt lat="50.167472" lon="5.256740"><time>2026-05-04T21:22:39Z</time></trkpt>
<trkpt lat="50.167528" lon="5.257749"><time>2026-05-04T21:32:39Z</time></trkpt>
</trkseg></trk>
<trk>
<name>nrcjm3</name>
<cmt>s</cmt>
<desc>Jemelle Chemin n°3 Rue Malagne</desc>
<link href="https://chemins.be/jemelle/chemin/3"/><trkseg>
<trkpt lat="50.167528" lon="5.257749"><time>2026-05-04T21:32:39Z</time></trkpt>
<trkpt lat="50.167606" lon="5.259178"><time>2026-05-04T21:42:39Z</time></trkpt>
<trkpt lat="50.168434" lon="5.266095"><time>2026-05-04T21:52:39Z</time></trkpt>
</trkseg>
</trk>
<trk>
<name>nrcjm30</name>
<cmt>s</cmt>
<desc>Jemelle Sentier n°30 Avenue de Ninove</desc>
<link href="https://chemins.be/jemelle/sentier/30"/><trkseg>
<trkpt lat="50.157648" lon="5.232597"><time>2026-05-04T20:22:39Z</time></trkpt>
<trkpt lat="50.157760" lon="5.230878"><time>2026-05-04T20:32:39Z</time></trkpt>
</trkseg>
</trk>
<trk>
<name>nrcjm31</name>
<cmt>q</cmt>
<desc>Jemelle Sentier n°31 </desc>
<link href="https://chemins.be/jemelle/sentier/31"/><trkseg>
<trkpt lat="50.154176" lon="5.261208"><time>2026-05-04T20:22:39Z</time></trkpt>
<trkpt lat="50.153865" lon="5.261860"><time>2026-05-04T20:32:39Z</time></trkpt>
<trkpt lat="50.152463" lon="5.263009"><time>2026-05-04T20:42:39Z</time></trkpt>
<trkpt lat="50.151849" lon="5.264439"><time>2026-05-04T20:52:39Z</time></trkpt>
<trkpt lat="50.151089" lon="5.266160"><time>2026-05-04T21:02:39Z</time></trkpt>
<trkpt lat="50.149820" lon="5.267549"><time>2026-05-04T21:12:39Z</time></trkpt>
<trkpt lat="50.148942" lon="5.269478"><time>2026-05-04T21:22:39Z</time></trkpt>
<trkpt lat="50.147323" lon="5.270665"><time>2026-05-04T21:32:39Z</time></trkpt>
</trkseg></trk>
<trk>
<name>nrcjm31</name>
<cmt>s</cmt>
<desc>Jemelle Sentier n°31 </desc>
<link href="https://chemins.be/jemelle/sentier/31"/><trkseg>
<trkpt lat="50.147323" lon="5.270665"><time>2026-05-04T21:32:39Z</time></trkpt>
<trkpt lat="50.146676" lon="5.271772"><time>2026-05-04T21:42:39Z</time></trkpt>
<trkpt lat="50.145665" lon="5.272312"><time>2026-05-04T21:52:39Z</time></trkpt>
</trkseg></trk>
<trk>
<name>nrcjm31</name>
<cmt>q</cmt>
<desc>Jemelle Sentier n°31 </desc>
<link href="https://chemins.be/jemelle/sentier/31"/><trkseg>
<trkpt lat="50.145665" lon="5.272312"><time>2026-05-04T21:52:39Z</time></trkpt>
<trkpt lat="50.143807" lon="5.273033"><time>2026-05-04T22:02:39Z</time></trkpt>
<trkpt lat="50.143426" lon="5.273417"><time>2026-05-04T22:12:39Z</time></trkpt>
<trkpt lat="50.142959" lon="5.273436"><time>2026-05-04T22:22:39Z</time></trkpt>
<trkpt lat="50.142510" lon="5.273344"><time>2026-05-04T22:32:39Z</time></trkpt>
</trkseg>
</trk>
<trk>
<name>nrcjm33</name>
<cmt>s</cmt>
<desc>Jemelle Sentier n°33 </desc>
<link href="https://chemins.be/jemelle/sentier/33"/><trkseg>
<trkpt lat="50.160944" lon="5.260299"><time>2026-05-04T20:22:39Z</time></trkpt>
<trkpt lat="50.160479" lon="5.260025"><time>2026-05-04T20:32:39Z</time></trkpt>
<trkpt lat="50.160280" lon="5.259160"><time>2026-05-04T20:42:39Z</time></trkpt>
<trkpt lat="50.158524" lon="5.256341"><time>2026-05-04T20:52:39Z</time></trkpt>
</trkseg></trk>
<trk>
<name>nrcjm33</name>
<cmt>r</cmt>
<desc>Jemelle Sentier n°33 </desc>
<link href="https://chemins.be/jemelle/sentier/33"/><trkseg>
<trkpt lat="50.158524" lon="5.256341"><time>2026-05-04T20:52:39Z</time></trkpt>
<trkpt lat="50.158024" lon="5.255175"><time>2026-05-04T21:02:39Z</time></trkpt>
</trkseg></trk>
<trk>
<name>nrcjm33</name>
<cmt>v</cmt>
<desc>Jemelle Sentier n°33 </desc>
<link href="https://chemins.be/jemelle/sentier/33"/><trkseg>
<trkpt lat="50.158024" lon="5.255175"><time>2026-05-04T21:02:39Z</time></trkpt>
<trkpt lat="50.156870" lon="5.252316"><time>2026-05-04T21:12:39Z</time></trkpt>
<trkpt lat="50.155463" lon="5.249351"><time>2026-05-04T21:22:39Z</time></trkpt>
</trkseg></trk>
<trk>
<name>nrcjm33</name>
<cmt>q</cmt>
<desc>Jemelle Sentier n°33 </desc>
<link href="https://chemins.be/jemelle/sentier/33"/><trkseg>
<trkpt lat="50.155463" lon="5.249351"><time>2026-05-04T21:22:39Z</time></trkpt>
<trkpt lat="50.155398" lon="5.248468"><time>2026-05-04T21:32:39Z</time></trkpt>
<trkpt lat="50.154820" lon="5.246372"><time>2026-05-04T21:42:39Z</time></trkpt>
<trkpt lat="50.154598" lon="5.246004"><time>2026-05-04T21:52:39Z</time></trkpt>
</trkseg>
</trk>
<trk>
<name>nrcjm34</name>
<cmt>r</cmt>
<desc>Jemelle Sentier n°34 </desc>
<link href="https://chemins.be/jemelle/sentier/34"/><trkseg>
<trkpt lat="50.161023" lon="5.260567"><time>2026-05-04T20:22:39Z</time></trkpt>
<trkpt lat="50.161422" lon="5.258951"><time>2026-05-04T20:32:39Z</time></trkpt>
<trkpt lat="50.161469" lon="5.258756"><time>2026-05-04T20:42:39Z</time></trkpt>
</trkseg></trk>
<trk>
<name>nrcjm34</name>
<cmt>v</cmt>
<desc>Jemelle Sentier n°34 </desc>
<link href="https://chemins.be/jemelle/sentier/34"/><trkseg>
<trkpt lat="50.161469" lon="5.258756"><time>2026-05-04T20:42:39Z</time></trkpt>
<trkpt lat="50.161626" lon="5.258227"><time>2026-05-04T20:52:39Z</time></trkpt>
<trkpt lat="50.161756" lon="5.257641"><time>2026-05-04T21:02:39Z</time></trkpt>
</trkseg>
</trk>
<trk>
<name>nrcjm35</name>
<cmt>s</cmt>
<desc>Jemelle Sentier n°35 </desc>
<link href="https://chemins.be/jemelle/sentier/35"/><trkseg>
<trkpt lat="50.163708" lon="5.258713"><time>2026-05-04T20:22:39Z</time></trkpt>
<trkpt lat="50.163084" lon="5.257974"><time>2026-05-04T20:32:39Z</time></trkpt>
<trkpt lat="50.163101" lon="5.256980"><time>2026-05-04T20:42:39Z</time></trkpt>
<trkpt lat="50.162927" lon="5.256137"><time>2026-05-04T20:52:39Z</time></trkpt>
<trkpt lat="50.163180" lon="5.256030"><time>2026-05-04T21:02:39Z</time></trkpt>
<trkpt lat="50.163094" lon="5.254321"><time>2026-05-04T21:12:39Z</time></trkpt>
<trkpt lat="50.162902" lon="5.253575"><time>2026-05-04T21:22:39Z</time></trkpt>
<trkpt lat="50.163292" lon="5.252015"><time>2026-05-04T21:32:39Z</time></trkpt>
<trkpt lat="50.163652" lon="5.250720"><time>2026-05-04T21:42:39Z</time></trkpt>
</trkseg>
</trk>
<trk>
<name>nrcjm4</name>
<cmt>r</cmt>
<desc>Jemelle Chemin n°4 Rue du Kiosque / Rue du Gerny / Rue de l'Observatoire</desc>
<link href="https://chemins.be/jemelle/chemin/4"/><trkseg>
<trkpt lat="50.162481" lon="5.260342"><time>2026-05-04T20:22:39Z</time></trkpt>
<trkpt lat="50.163176" lon="5.260047"><time>2026-05-04T20:32:39Z</time></trkpt>
<trkpt lat="50.163511" lon="5.259801"><time>2026-05-04T20:42:39Z</time></trkpt>
<trkpt lat="50.163857" lon="5.259234"><time>2026-05-04T20:52:39Z</time></trkpt>
<trkpt lat="50.164456" lon="5.258475"><time>2026-05-04T21:02:39Z</time></trkpt>
<trkpt lat="50.164451" lon="5.259105"><time>2026-05-04T21:12:39Z</time></trkpt>
<trkpt lat="50.164291" lon="5.259984"><time>2026-05-04T21:22:39Z</time></trkpt>
<trkpt lat="50.164589" lon="5.261025"><time>2026-05-04T21:32:39Z</time></trkpt>
</trkseg></trk>
<trk>
<name>nrcjm4</name>
<cmt>v</cmt>
<desc>Jemelle Chemin n°4 Rue du Kiosque / Rue du Gerny / Rue de l'Observatoire</desc>
<link href="https://chemins.be/jemelle/chemin/4"/><trkseg>
<trkpt lat="50.164589" lon="5.261025"><time>2026-05-04T21:32:39Z</time></trkpt>
<trkpt lat="50.164886" lon="5.261017"><time>2026-05-04T21:42:39Z</time></trkpt>
<trkpt lat="50.164997" lon="5.260571"><time>2026-05-04T21:52:39Z</time></trkpt>
<trkpt lat="50.165331" lon="5.260423"><time>2026-05-04T22:02:39Z</time></trkpt>
<trkpt lat="50.166010" lon="5.259778"><time>2026-05-04T22:12:39Z</time></trkpt>
<trkpt lat="50.166487" lon="5.259829"><time>2026-05-04T22:22:39Z</time></trkpt>
</trkseg></trk>
<trk>
<name>nrcjm4</name>
<cmt>r</cmt>
<desc>Jemelle Chemin n°4 Rue du Kiosque / Rue du Gerny / Rue de l'Observatoire</desc>
<link href="https://chemins.be/jemelle/chemin/4"/><trkseg>
<trkpt lat="50.166487" lon="5.259829"><time>2026-05-04T22:22:39Z</time></trkpt>
<trkpt lat="50.166848" lon="5.259598"><time>2026-05-04T22:32:39Z</time></trkpt>
<trkpt lat="50.168021" lon="5.259088"><time>2026-05-04T22:42:39Z</time></trkpt>
<trkpt lat="50.168452" lon="5.259124"><time>2026-05-04T22:52:39Z</time></trkpt>
<trkpt lat="50.169191" lon="5.260104"><time>2026-05-04T23:02:39Z</time></trkpt>
<trkpt lat="50.170586" lon="5.261110"><time>2026-05-04T23:12:39Z</time></trkpt>
<trkpt lat="50.171161" lon="5.261176"><time>2026-05-04T23:22:39Z</time></trkpt>
<trkpt lat="50.172683" lon="5.259581"><time>2026-05-04T23:32:39Z</time></trkpt>
<trkpt lat="50.174900" lon="5.257788"><time>2026-05-04T23:42:39Z</time></trkpt>
<trkpt lat="50.175428" lon="5.256916"><time>2026-05-04T23:52:39Z</time></trkpt>
</trkseg>
</trk>
<trk>
<name>nrcjm5</name>
<cmt>r</cmt>
<desc>Jemelle Chemin n°5 Place Sainte-Marguerite</desc>
<link href="https://chemins.be/jemelle/chemin/5"/><trkseg>
<trkpt lat="50.162116" lon="5.261063"><time>2026-05-04T20:22:39Z</time></trkpt>
<trkpt lat="50.163048" lon="5.262676"><time>2026-05-04T20:32:39Z</time></trkpt>
<trkpt lat="50.163195" lon="5.263435"><time>2026-05-04T20:42:39Z</time></trkpt>
<trkpt lat="50.163219" lon="5.267242"><time>2026-05-04T20:52:39Z</time></trkpt>
</trkseg>
</trk>
<trk>
<name>nrcjm6</name>
<cmt>r</cmt>
<desc>Jemelle Chemin n°6 Rue du Fays</desc>
<link href="https://chemins.be/jemelle/chemin/6"/><trkseg>
<trkpt lat="50.155262" lon="5.255547"><time>2026-05-04T20:22:39Z</time></trkpt>
<trkpt lat="50.154330" lon="5.252801"><time>2026-05-04T20:32:39Z</time></trkpt>
<trkpt lat="50.153601" lon="5.251724"><time>2026-05-04T20:42:39Z</time></trkpt>
<trkpt lat="50.152906" lon="5.251011"><time>2026-05-04T20:52:39Z</time></trkpt>
<trkpt lat="50.152044" lon="5.249666"><time>2026-05-04T21:02:39Z</time></trkpt>
<trkpt lat="50.148895" lon="5.241262"><time>2026-05-04T21:12:39Z</time></trkpt>
<trkpt lat="50.147997" lon="5.237893"><time>2026-05-04T21:22:39Z</time></trkpt>
<trkpt lat="50.146113" lon="5.233787"><time>2026-05-04T21:32:39Z</time></trkpt>
</trkseg>
</trk>
<trk>
<name>nrcjm7</name>
<cmt>r</cmt>
<desc>Jemelle Chemin n°7 Rue du Gerny</desc>
<link href="https://chemins.be/jemelle/chemin/7"/><trkseg>
<trkpt lat="50.164624" lon="5.261152"><time>2026-05-04T20:22:39Z</time></trkpt>
<trkpt lat="50.164733" lon="5.261872"><time>2026-05-04T20:32:39Z</time></trkpt>
<trkpt lat="50.165222" lon="5.262941"><time>2026-05-04T20:42:39Z</time></trkpt>
</trkseg></trk>
<trk>
<name>nrcjm7</name>
<cmt>v</cmt>
<desc>Jemelle Chemin n°7 Rue du Gerny</desc>
<link href="https://chemins.be/jemelle/chemin/7"/><trkseg>
<trkpt lat="50.165222" lon="5.262941"><time>2026-05-04T20:42:39Z</time></trkpt>
<trkpt lat="50.165549" lon="5.263577"><time>2026-05-04T20:52:39Z</time></trkpt>
<trkpt lat="50.166038" lon="5.264303"><time>2026-05-04T21:02:39Z</time></trkpt>
</trkseg></trk>
<trk>
<name>nrcjm7</name>
<cmt>q</cmt>
<desc>Jemelle Chemin n°7 Rue du Gerny</desc>
<link href="https://chemins.be/jemelle/chemin/7"/><trkseg>
<trkpt lat="50.166038" lon="5.264303"><time>2026-05-04T21:02:39Z</time></trkpt>
<trkpt lat="50.167086" lon="5.265623"><time>2026-05-04T21:12:39Z</time></trkpt>
<trkpt lat="50.168229" lon="5.266764"><time>2026-05-04T21:22:39Z</time></trkpt>
</trkseg>
</trk>
<trk>
<name>nrcjm8</name>
<cmt>v</cmt>
<desc>Jemelle Chemin n°8 </desc>
<link href="https://chemins.be/jemelle/chemin/8"/><trkseg>
<trkpt lat="50.145055" lon="5.249970"><time>2026-05-04T20:22:39Z</time></trkpt>
<trkpt lat="50.143159" lon="5.253335"><time>2026-05-04T20:32:39Z</time></trkpt>
<trkpt lat="50.141228" lon="5.261246"><time>2026-05-04T20:42:39Z</time></trkpt>
</trkseg>
</trk>
<trk>
<name>nrcjm9</name>
<cmt>r</cmt>
<desc>Jemelle Chemin n°9 Rabanisse</desc>
<link href="https://chemins.be/jemelle/chemin/9"/><trkseg>
<trkpt lat="50.145034" lon="5.249214"><time>2026-05-04T20:22:39Z</time></trkpt>
<trkpt lat="50.146524" lon="5.243631"><time>2026-05-04T20:32:39Z</time></trkpt>
<trkpt lat="50.146513" lon="5.242707"><time>2026-05-04T20:42:39Z</time></trkpt>
<trkpt lat="50.147178" lon="5.241558"><time>2026-05-04T20:52:39Z</time></trkpt>
<trkpt lat="50.147927" lon="5.237654"><time>2026-05-04T21:02:39Z</time></trkpt>
<trkpt lat="50.149026" lon="5.233770"><time>2026-05-04T21:12:39Z</time></trkpt>
<trkpt lat="50.148900" lon="5.232593"><time>2026-05-04T21:22:39Z</time></trkpt>
</trkseg>
</trk>
<trk>
<name>nrcjmi1</name>
<cmt>v</cmt>
<desc>Jemelle Chemin n°i1 </desc>
<link href="https://chemins.be/jemelle/chemin/i1"/><trkseg>
<trkpt lat="50.163641" lon="5.252176"><time>2026-05-04T20:22:39Z</time></trkpt>
<trkpt lat="50.163912" lon="5.252013"><time>2026-05-04T20:32:39Z</time></trkpt>
<trkpt lat="50.163202" lon="5.249676"><time>2026-05-04T20:42:39Z</time></trkpt>
<trkpt lat="50.162198" lon="5.248020"><time>2026-05-04T20:52:39Z</time></trkpt>
<trkpt lat="50.161587" lon="5.246861"><time>2026-05-04T21:02:39Z</time></trkpt>
<trkpt lat="50.161274" lon="5.245483"><time>2026-05-04T21:12:39Z</time></trkpt>
</trkseg>
</trk>
<trk>
<name>nrcjmi2</name>
<cmt>v</cmt>
<desc>Jemelle Sentier n°i2 </desc>
<link href="https://chemins.be/jemelle/sentier/i2"/><trkseg>
<trkpt lat="50.148030" lon="5.261877"><time>2026-05-04T20:22:39Z</time></trkpt>
<trkpt lat="50.148196" lon="5.261264"><time>2026-05-04T20:32:39Z</time></trkpt>
<trkpt lat="50.147554" lon="5.259433"><time>2026-05-04T20:42:39Z</time></trkpt>
<trkpt lat="50.147336" lon="5.257386"><time>2026-05-04T20:52:39Z</time></trkpt>
<trkpt lat="50.147400" lon="5.256579"><time>2026-05-04T21:02:39Z</time></trkpt>
<trkpt lat="50.147446" lon="5.256003"><time>2026-05-04T21:12:39Z</time></trkpt>
<trkpt lat="50.147677" lon="5.255182"><time>2026-05-04T21:22:39Z</time></trkpt>
<trkpt lat="50.148194" lon="5.252253"><time>2026-05-04T21:32:39Z</time></trkpt>
</trkseg>
</trk>
<trk>
<name>nrcjmi3</name>
<cmt>v</cmt>
<desc>Jemelle Sentier n°i3 </desc>
<link href="https://chemins.be/jemelle/sentier/i3"/><trkseg>
<trkpt lat="50.155594" lon="5.257974"><time>2026-05-04T20:22:39Z</time></trkpt>
<trkpt lat="50.154947" lon="5.259096"><time>2026-05-04T20:32:39Z</time></trkpt>
<trkpt lat="50.154271" lon="5.258243"><time>2026-05-04T20:42:39Z</time></trkpt>
<trkpt lat="50.153086" lon="5.256808"><time>2026-05-04T20:52:39Z</time></trkpt>
<trkpt lat="50.150443" lon="5.254450"><time>2026-05-04T21:02:39Z</time></trkpt>
<trkpt lat="50.148220" lon="5.252296"><time>2026-05-04T21:12:39Z</time></trkpt>
<trkpt lat="50.147819" lon="5.251798"><time>2026-05-04T21:22:39Z</time></trkpt>
</trkseg>
</trk>
<trk>
<name>nrcjmi4</name>
<cmt>v</cmt>
<desc>Jemelle Sentier n°i4 </desc>
<link href="https://chemins.be/jemelle/sentier/i4"/><trkseg>
<trkpt lat="50.162624" lon="5.263888"><time>2026-05-04T20:22:39Z</time></trkpt>
<trkpt lat="50.162965" lon="5.263588"><time>2026-05-04T20:32:39Z</time></trkpt>
</trkseg>
</trk>
<trk>
<name>nrcjmi5</name>
<cmt>v</cmt>
<desc>Jemelle Chemin n°i5 </desc>
<link href="https://chemins.be/jemelle/chemin/i5"/><trkseg>
<trkpt lat="50.157770" lon="5.266266"><time>2026-05-04T20:22:39Z</time></trkpt>
<trkpt lat="50.157844" lon="5.266507"><time>2026-05-04T20:32:39Z</time></trkpt>
<trkpt lat="50.158563" lon="5.267085"><time>2026-05-04T20:42:39Z</time></trkpt>
<trkpt lat="50.159134" lon="5.267442"><time>2026-05-04T20:52:39Z</time></trkpt>
</trkseg>
</trk>
<trk>
<name>nrcjmi6</name>
<cmt>v</cmt>
<desc>Jemelle Chemin n°i6 </desc>
<link href="https://chemins.be/jemelle/chemin/i6"/><trkseg>
<trkpt lat="50.161581" lon="5.258212"><time>2026-05-04T20:22:39Z</time></trkpt>
<trkpt lat="50.161548" lon="5.256574"><time>2026-05-04T20:32:39Z</time></trkpt>
<trkpt lat="50.161113" lon="5.254774"><time>2026-05-04T20:42:39Z</time></trkpt>
<trkpt lat="50.159388" lon="5.251061"><time>2026-05-04T20:52:39Z</time></trkpt>
<trkpt lat="50.158899" lon="5.250268"><time>2026-05-04T21:02:39Z</time></trkpt>
<trkpt lat="50.157756" lon="5.249253"><time>2026-05-04T21:12:39Z</time></trkpt>
<trkpt lat="50.156053" lon="5.242686"><time>2026-05-04T21:22:39Z</time></trkpt>
</trkseg>
</trk>
<trk>
<name>nrcjmi7</name>
<cmt>v</cmt>
<desc>Jemelle Chemin n°i7 </desc>
<link href="https://chemins.be/jemelle/chemin/i7"/><trkseg>
<trkpt lat="50.167591" lon="5.257736"><time>2026-05-04T20:22:39Z</time></trkpt>
<trkpt lat="50.167845" lon="5.258511"><time>2026-05-04T20:32:39Z</time></trkpt>
<trkpt lat="50.168049" lon="5.258962"><time>2026-05-04T20:42:39Z</time></trkpt>
</trkseg>
</trk>
<trk>
<name>nrcjmi8</name>
<cmt>v</cmt>
<desc>Jemelle Chemin n°i8 </desc>
<link href="https://chemins.be/jemelle/chemin/i8"/><trkseg>
<trkpt lat="50.162882" lon="5.256151"><time>2026-05-04T20:22:39Z</time></trkpt>
<trkpt lat="50.163046" lon="5.257035"><time>2026-05-04T20:32:39Z</time></trkpt>
<trkpt lat="50.163020" lon="5.258169"><time>2026-05-04T20:42:39Z</time></trkpt>
<trkpt lat="50.163038" lon="5.259289"><time>2026-05-04T20:52:39Z</time></trkpt>
</trkseg>
</trk>
<trk>
<name>nrcjmL150</name>
<cmt>v</cmt>
<desc>Jemelle Chemin n°L150 RAVeL Ligne 150</desc>
<link href="https://chemins.be/jemelle/chemin/L150"/><trkseg>
<trkpt lat="50.157379" lon="5.230143"><time>2026-05-04T20:22:39Z</time></trkpt>
<trkpt lat="50.156175" lon="5.236013"><time>2026-05-04T20:32:39Z</time></trkpt>
<trkpt lat="50.155685" lon="5.237838"><time>2026-05-04T20:42:39Z</time></trkpt>
<trkpt lat="50.155455" lon="5.238477"><time>2026-05-04T20:52:39Z</time></trkpt>
<trkpt lat="50.154580" lon="5.240140"><time>2026-05-04T21:02:39Z</time></trkpt>
<trkpt lat="50.154158" lon="5.241126"><time>2026-05-04T21:12:39Z</time></trkpt>
<trkpt lat="50.153771" lon="5.242379"><time>2026-05-04T21:22:39Z</time></trkpt>
<trkpt lat="50.153546" lon="5.243606"><time>2026-05-04T21:32:39Z</time></trkpt>
<trkpt lat="50.153467" lon="5.244598"><time>2026-05-04T21:42:39Z</time></trkpt>
<trkpt lat="50.153548" lon="5.245775"><time>2026-05-04T21:52:39Z</time></trkpt>
<trkpt lat="50.154254" lon="5.249846"><time>2026-05-04T22:02:39Z</time></trkpt>
<trkpt lat="50.155080" lon="5.252353"><time>2026-05-04T22:12:39Z</time></trkpt>
<trkpt lat="50.155553" lon="5.253971"><time>2026-05-04T22:22:39Z</time></trkpt>
<trkpt lat="50.155793" lon="5.255529"><time>2026-05-04T22:32:39Z</time></trkpt>
<trkpt lat="50.155849" lon="5.256425"><time>2026-05-04T22:42:39Z</time></trkpt>
<trkpt lat="50.155821" lon="5.257712"><time>2026-05-04T22:52:39Z</time></trkpt>
<trkpt lat="50.155703" lon="5.258998"><time>2026-05-04T23:02:39Z</time></trkpt>
<trkpt lat="50.155550" lon="5.260268"><time>2026-05-04T23:12:39Z</time></trkpt>
<trkpt lat="50.155458" lon="5.261624"><time>2026-05-04T23:22:39Z</time></trkpt>
<trkpt lat="50.155471" lon="5.262380"><time>2026-05-04T23:32:39Z</time></trkpt>
<trkpt lat="50.155908" lon="5.263928"><time>2026-05-04T23:42:39Z</time></trkpt>
<trkpt lat="50.156317" lon="5.264551"><time>2026-05-04T23:52:39Z</time></trkpt>
<trkpt lat="50.159328" lon="5.265825"><time>2026-05-05T00:02:39Z</time></trkpt>
</trkseg>
</trk>
</gpx>